KMWA/MWA METAR and TAF weather

Enter ICAO airport designator
Station Type Date Time Source
KMWA METAR 2019/02/16 16:45 UTC NOAA

KMWA 161645Z 02010KT 10SM SCT018 BKN080 M03/M07 A3006


Station Type Date Time Source
KMWA Decoded METAR 2019/02/16 16:45 UTC NOAA

Marion, Williamson County Regional Airport, IL, United States (KMWA) 37-45-01N 089-00-04W
Feb 16, 2019 - 11:45 AM EST / 2019.02.16 1645 UTC
Wind: from the NNE (020 degrees) at 12 MPH (10 KT):0
Visibility: 10 mile(s):0
Sky conditions: mostly cloudy
Temperature: 26 F (-3 C)
Windchill: 15 F (-9 C):1
Dew Point: 19 F (-7 C)
Relative Humidity: 73%
Pressure (altimeter): 30.06 in. Hg (1017 hPa)
ob: KMWA 161645Z 02010KT 10SM SCT018 BKN080 M03/M07 A3006
cycle: 17

Station Type Date Time Source
KMWA TAF UTC NOAA

Error!


Example: see airport list